Time;durP1;ratioP1;P1;durP2;ratioP2;P2;SDS_P1;SDS_P2;PMS_P1;PMS_P2;Temp;Humidity;BMP_temperature;BMP_pressure;BME280_temperature;BME280_humidity;BME280_pressure;Samples;Min_cycle;Max_cycle;Signal;HPM_P1;HPM_P2
2024/02/21 00:00:58;;;;;;;19.90;6.90;;;;;;;5.23;100.00;101095.88;106773;1262;97891;-80
2024/02/21 00:03:43;;;;;;;17.60;7.50;;;;;;;5.23;100.00;101088.78;106549;1257;98250;-79
2024/02/21 00:06:29;;;;;;;22.60;7.20;;;;;;;5.25;100.00;101088.58;106287;1257;102790;-79
2024/02/21 00:09:14;;;;;;;19.70;7.40;;;;;;;5.28;100.00;101091.09;105633;1262;99132;-79
2024/02/21 00:12:01;;;;;;;23.90;8.90;;;;;;;5.30;100.00;101092.89;106128;1259;99651;-77
2024/02/21 00:14:46;;;;;;;17.40;7.90;;;;;;;5.31;100.00;101090.45;106059;1262;97957;-80
2024/02/21 00:17:32;;;;;;;23.10;8.50;;;;;;;5.33;100.00;101091.88;106154;1261;97893;-80
2024/02/21 00:20:18;;;;;;;21.90;9.00;;;;;;;5.33;100.00;101089.02;105646;1259;103052;-80
2024/02/21 00:23:03;;;;;;;24.50;8.10;;;;;;;5.33;100.00;101087.94;105786;1257;99135;-79
2024/02/21 00:25:49;;;;;;;16.40;8.00;;;;;;;5.35;100.00;101086.40;105881;1258;97900;-80
2024/02/21 00:28:35;;;;;;;18.50;7.60;;;;;;;5.35;100.00;101084.94;106202;1263;98148;-81
2024/02/21 00:31:20;;;;;;;19.70;7.70;;;;;;;5.37;100.00;101080.91;106587;1257;98663;-80
2024/02/21 00:34:06;;;;;;;20.70;8.20;;;;;;;5.39;100.00;101078.61;106529;1259;101553;-80
2024/02/21 00:36:52;;;;;;;19.10;8.80;;;;;;;5.40;100.00;101080.20;106556;1262;99130;-81
2024/02/21 00:39:38;;;;;;;21.50;8.80;;;;;;;5.43;100.00;101079.13;106562;1260;98417;-81
2024/02/21 00:42:23;;;;;;;19.20;9.40;;;;;;;5.44;100.00;101076.12;106588;1258;97993;-81
2024/02/21 00:45:09;;;;;;;17.20;9.50;;;;;;;5.47;100.00;101076.92;106460;1258;97976;-81
2024/02/21 00:47:55;;;;;;;16.70;7.30;;;;;;;5.48;100.00;101070.61;106588;1257;102488;-80
2024/02/21 00:50:41;;;;;;;19.20;7.60;;;;;;;5.49;100.00;101065.92;106681;1258;99061;-81
2024/02/21 00:53:26;;;;;;;16.00;7.00;;;;;;;5.50;100.00;101064.24;106716;1262;99056;-79
2024/02/21 00:56:12;;;;;;;16.60;6.20;;;;;;;5.52;100.00;101065.66;106583;1259;99114;-81
2024/02/21 00:58:57;;;;;;;16.70;7.30;;;;;;;5.55;100.00;101061.16;106742;1262;98426;-80
2024/02/21 01:01:43;;;;;;;13.40;6.50;;;;;;;5.57;100.00;101063.59;106796;1259;102666;-81
2024/02/21 01:04:28;;;;;;;15.20;6.00;;;;;;;5.59;100.00;101063.10;106772;1262;100335;-80
2024/02/21 01:07:14;;;;;;;19.90;6.50;;;;;;;5.59;100.00;101060.95;105947;1259;98716;-79
2024/02/21 01:10:00;;;;;;;17.50;6.50;;;;;;;5.57;100.00;101052.45;105980;1257;97922;-79
2024/02/21 01:12:45;;;;;;;22.60;8.90;;;;;;;5.58;100.00;101049.90;106137;1258;97835;-79
2024/02/21 01:15:31;;;;;;;16.60;7.10;;;;;;;5.59;100.00;101046.77;106125;1262;101344;-79
2024/02/21 01:18:16;;;;;;;20.50;8.90;;;;;;;5.59;100.00;101043.04;105882;1259;100390;-80
2024/02/21 01:21:02;;;;;;;17.00;7.50;;;;;;;5.60;100.00;101042.02;106288;1262;98997;-79
2024/02/21 01:23:47;;;;;;;16.80;6.60;;;;;;;5.63;100.00;101047.44;105990;1262;97959;-79
2024/02/21 01:26:33;;;;;;;18.20;7.30;;;;;;;5.63;100.00;101043.55;105990;1259;97929;-79
2024/02/21 01:29:19;;;;;;;15.80;8.00;;;;;;;5.64;100.00;101043.63;106835;1258;102632;-80
2024/02/21 01:32:05;;;;;;;16.90;8.00;;;;;;;5.64;100.00;101044.21;106031;1259;99179;-80
2024/02/21 01:34:51;;;;;;;18.20;8.20;;;;;;;5.62;100.00;101045.06;106267;1259;97906;-80
2024/02/21 01:37:37;;;;;;;19.20;7.80;;;;;;;5.61;100.00;101039.11;106109;1258;97966;-79
2024/02/21 01:40:22;;;;;;;18.40;8.10;;;;;;;5.61;100.00;101037.85;106118;1257;172516;-79
2024/02/21 01:43:19;;;;;;;20.70;8.70;;;;;;;5.62;100.00;101040.08;106017;1257;101462;-78
2024/02/21 01:46:04;;;;;;;15.40;7.00;;;;;;;5.63;100.00;101040.67;106057;1262;99567;-81
2024/02/21 01:48:50;;;;;;;24.10;9.50;;;;;;;5.63;100.00;101041.09;106143;1259;97977;-78
2024/02/21 01:51:36;;;;;;;23.50;7.90;;;;;;;5.63;100.00;101040.23;106147;1259;98009;-80
2024/02/21 01:54:22;;;;;;;20.00;9.20;;;;;;;5.62;100.00;101036.04;106283;1258;98445;-78
2024/02/21 01:57:08;;;;;;;26.70;9.30;;;;;;;5.61;100.00;101037.70;106064;1259;102636;-79
2024/02/21 01:59:53;;;;;;;20.90;8.30;;;;;;;5.61;100.00;101038.83;106150;1257;100401;-78
2024/02/21 02:02:40;;;;;;;21.40;8.50;;;;;;;5.61;100.00;101039.00;106076;1262;97761;-79
2024/02/21 02:05:26;;;;;;;23.10;8.50;;;;;;;5.61;100.00;101037.71;105946;1260;97982;-80
2024/02/21 02:08:14;;;;;;;23.50;8.70;;;;;;;5.62;100.00;101038.33;106149;1262;97883;-80
2024/02/21 02:11:00;;;;;;;20.30;8.90;;;;;;;5.62;100.00;101038.52;106088;1262;101346;-79
2024/02/21 02:13:46;;;;;;;22.80;8.10;;;;;;;5.63;100.00;101034.20;105963;1258;99152;-80
2024/02/21 02:16:31;;;;;;;24.00;9.10;;;;;;;5.62;100.00;101030.88;106159;1257;99018;-80
2024/02/21 02:19:17;;;;;;;23.30;9.30;;;;;;;5.61;100.00;101032.90;106211;1261;97883;-79
2024/02/21 02:22:13;;;;;;;22.60;9.30;;;;;;;5.61;100.00;101028.48;106083;1259;97868;-78
2024/02/21 02:24:58;;;;;;;23.40;9.20;;;;;;;5.62;100.00;101025.19;106149;1260;101377;-79
2024/02/21 02:27:44;;;;;;;19.40;9.70;;;;;;;5.63;100.00;101021.56;106301;1257;99109;-80
2024/02/21 02:30:36;;;;;;;21.20;8.80;;;;;;;5.65;100.00;101019.67;106442;1262;99048;-79
2024/02/21 02:33:21;;;;;;;17.20;8.80;;;;;;;5.65;100.00;101017.66;106036;1259;97979;-79
2024/02/21 02:36:07;;;;;;;30.90;13.40;;;;;;;5.67;100.00;101021.19;106208;1259;98489;-79
2024/02/21 02:38:52;;;;;;;29.10;13.00;;;;;;;5.68;100.00;101015.46;106094;1258;101402;-79
2024/02/21 02:41:37;;;;;;;27.10;12.50;;;;;;;5.68;100.00;101011.05;106199;1262;99117;-78
2024/02/21 02:44:23;;;;;;;20.10;12.30;;;;;;;5.69;100.00;101007.27;106077;1259;99018;-79
2024/02/21 02:47:09;;;;;;;19.70;9.80;;;;;;;5.70;100.00;101008.00;106002;1258;97976;-80
2024/02/21 02:49:55;;;;;;;26.90;9.70;;;;;;;5.70;100.00;101008.36;106120;1259;98479;-78
2024/02/21 02:52:40;;;;;;;18.10;9.20;;;;;;;5.71;100.00;101011.61;105657;1259;101338;-79
2024/02/21 02:55:26;;;;;;;16.40;9.90;;;;;;;5.71;100.00;101009.67;105689;1260;100311;-78
2024/02/21 02:58:12;;;;;;;21.30;10.50;;;;;;;5.70;100.00;101009.96;105614;1257;99090;-79
2024/02/21 03:01:16;;;;;;;23.30;9.90;;;;;;;5.69;100.00;101008.59;105656;1258;98121;-78
2024/02/21 03:04:01;;;;;;;21.30;9.60;;;;;;;5.70;100.00;101003.95;106210;1262;99364;-78
2024/02/21 03:06:47;;;;;;;22.40;8.80;;;;;;;5.69;100.00;101003.45;106101;1262;102677;-80
2024/02/21 03:09:33;;;;;;;19.20;9.60;;;;;;;5.69;100.00;101005.48;106755;1259;100378;-80
2024/02/21 03:12:24;;;;;;;24.10;9.60;;;;;;;5.68;100.00;101007.29;106759;1259;97885;-80
2024/02/21 03:15:10;;;;;;;20.40;9.60;;;;;;;5.69;100.00;101006.48;106290;1262;97987;-79
2024/02/21 03:17:55;;;;;;;20.50;9.10;;;;;;;5.68;100.00;101006.02;106312;1257;97016;-79
2024/02/21 03:20:41;;;;;;;22.80;10.00;;;;;;;5.69;100.00;101003.71;106112;1259;102663;-79
2024/02/21 03:23:26;;;;;;;18.60;10.00;;;;;;;5.68;100.00;101004.96;106084;1262;99066;-80
2024/02/21 03:26:12;;;;;;;19.50;9.10;;;;;;;5.69;100.00;101003.14;106055;1257;98415;-80
2024/02/21 03:28:57;;;;;;;21.70;9.70;;;;;;;5.69;100.00;101001.38;106137;1259;96593;-79
2024/02/21 03:31:43;;;;;;;21.50;10.30;;;;;;;5.68;100.00;101001.94;106143;1262;97834;-80
2024/02/21 03:34:28;;;;;;;22.60;10.10;;;;;;;5.71;100.00;101003.70;106053;1265;102009;-79
2024/02/21 03:37:13;;;;;;;24.10;10.90;;;;;;;5.72;100.00;101004.08;106199;1260;99086;-81
2024/02/21 03:39:59;;;;;;;22.10;10.10;;;;;;;5.74;100.00;101009.19;106216;1261;97978;-80
2024/02/21 03:42:45;;;;;;;20.10;10.50;;;;;;;5.75;100.00;101003.02;106025;1259;97965;-80
2024/02/21 03:45:30;;;;;;;28.30;11.30;;;;;;;5.74;100.00;100999.80;106164;1257;97947;-78
2024/02/21 03:48:16;;;;;;;18.90;11.00;;;;;;;5.71;100.00;100993.86;106153;1262;101347;-78
2024/02/21 03:51:02;;;;;;;27.90;12.60;;;;;;;5.71;100.00;100998.51;106191;1262;100109;-79
2024/02/21 03:53:48;;;;;;;25.50;11.90;;;;;;;5.70;100.00;100996.11;105896;1263;98406;-79
2024/02/21 03:56:37;;;;;;;26.50;11.60;;;;;;;5.72;100.00;100997.02;106142;1259;97957;-78
2024/02/21 03:59:22;;;;;;;22.60;12.40;;;;;;;5.72;100.00;100996.61;105855;1259;97981;-79
2024/02/21 04:02:08;;;;;;;19.90;11.90;;;;;;;5.73;100.00;100994.75;106207;1262;101353;-78
2024/02/21 04:04:53;;;;;;;31.20;12.60;;;;;;;5.75;100.00;100989.23;106253;1260;99099;-79
2024/02/21 04:07:39;;;;;;;31.80;13.10;;;;;;;5.76;100.00;100983.66;106183;1257;98991;-80
2024/02/21 04:10:25;;;;;;;28.00;13.70;;;;;;;5.78;100.00;100983.48;106066;1259;98510;-80
2024/02/21 04:13:10;;;;;;;27.90;13.90;;;;;;;5.79;100.00;100982.47;106218;1262;98495;-79
2024/02/21 04:15:56;;;;;;;27.50;14.30;;;;;;;5.81;100.00;100983.83;106081;1262;101470;-78
2024/02/21 04:18:43;;;;;;;28.70;13.90;;;;;;;5.82;100.00;100981.98;106047;1259;99135;-80
2024/02/21 04:21:29;;;;;;;27.10;14.00;;;;;;;5.81;100.00;100981.76;106080;1259;97986;-80
2024/02/21 04:24:14;;;;;;;27.70;14.80;;;;;;;5.80;100.00;100980.02;105942;1258;97870;-79
2024/02/21 04:26:59;;;;;;;24.00;14.40;;;;;;;5.80;100.00;100981.27;106266;1260;97868;-80
2024/02/21 04:29:44;;;;;;;29.00;14.30;;;;;;;5.80;100.00;100978.63;106271;1259;101935;-80
2024/02/21 04:32:30;;;;;;;27.50;13.60;;;;;;;5.81;100.00;100974.16;106168;1278;99095;-79
2024/02/21 04:35:17;;;;;;;34.60;15.80;;;;;;;5.82;100.00;100973.36;106150;1259;98845;-79
2024/02/21 04:38:03;;;;;;;22.70;13.30;;;;;;;5.82;100.00;100969.81;106111;1262;98548;-79
2024/02/21 04:40:49;;;;;;;27.90;14.10;;;;;;;5.82;100.00;100969.92;105979;1258;98498;-79
2024/02/21 04:43:35;;;;;;;26.00;13.90;;;;;;;5.82;100.00;100968.36;106154;1262;101374;-80
2024/02/21 04:46:20;;;;;;;32.90;13.80;;;;;;;5.79;100.00;100970.39;106800;1262;99818;-81
2024/02/21 04:49:06;;;;;;;28.00;14.00;;;;;;;5.77;100.00;100968.68;106839;1257;98454;-80
2024/02/21 04:51:51;;;;;;;31.20;13.60;;;;;;;5.76;100.00;100972.49;106867;1257;97868;-81
2024/02/21 04:54:37;;;;;;;30.80;13.00;;;;;;;5.77;100.00;100962.48;106865;1261;97980;-80
2024/02/21 04:57:22;;;;;;;28.40;12.40;;;;;;;5.78;100.00;100963.27;106698;1262;103057;-79
2024/02/21 05:00:09;;;;;;;30.10;15.30;;;;;;;5.80;100.00;100960.77;106260;1257;99660;-79
2024/02/21 05:02:55;;;;;;;30.10;15.20;;;;;;;5.80;100.00;100956.52;106182;1259;98683;-79
2024/02/21 05:05:40;;;;;;;37.80;14.70;;;;;;;5.80;100.00;100955.77;106101;1258;98837;-79
2024/02/21 05:08:26;;;;;;;28.80;15.30;;;;;;;5.80;100.00;100951.67;106563;1262;97894;-80
2024/02/21 05:11:11;;;;;;;30.60;15.90;;;;;;;5.81;100.00;100941.92;106766;1260;101576;-79
2024/02/21 05:13:57;;;;;;;31.80;14.50;;;;;;;5.82;100.00;100929.73;106235;1261;100486;-79
2024/02/21 05:16:43;;;;;;;29.50;15.00;;;;;;;5.82;100.00;100940.67;106347;1262;98700;-80
2024/02/21 05:19:28;;;;;;;31.40;16.80;;;;;;;5.82;100.00;100945.71;106196;1262;98922;-79
2024/02/21 05:22:14;;;;;;;28.90;16.60;;;;;;;5.82;100.00;100937.90;105933;1260;98570;-80
2024/02/21 05:24:59;;;;;;;32.70;14.70;;;;;;;5.82;100.00;100940.71;106232;1259;101377;-78
2024/02/21 05:27:45;;;;;;;26.70;14.40;;;;;;;5.83;100.00;100947.19;106630;1260;99110;-79
2024/02/21 05:30:31;;;;;;;32.30;14.00;;;;;;;5.83;100.00;100946.42;106733;1257;97913;-79
2024/02/21 05:33:21;;;;;;;29.40;14.80;;;;;;;5.83;100.00;100945.05;106254;1262;97893;-80
2024/02/21 05:36:06;;;;;;;28.20;13.70;;;;;;;5.82;100.00;100944.77;106209;1262;97922;-79
2024/02/21 05:38:52;;;;;;;27.50;13.70;;;;;;;5.82;100.00;100941.74;106338;1260;102088;-80
2024/02/21 05:41:38;;;;;;;33.50;15.50;;;;;;;5.83;100.00;100940.27;105996;1266;99828;-80
2024/02/21 05:44:23;;;;;;;28.50;13.60;;;;;;;5.85;100.00;100937.11;106192;1260;97881;-79
2024/02/21 05:47:10;;;;;;;40.10;16.10;;;;;;;5.87;100.00;100939.17;106292;1262;97928;-80
2024/02/21 05:49:56;;;;;;;34.50;15.20;;;;;;;5.90;100.00;100942.23;106113;1259;97867;-79
2024/02/21 05:52:41;;;;;;;31.10;15.30;;;;;;;5.91;100.00;100946.00;106090;1262;102224;-80
2024/02/21 05:55:27;;;;;;;33.80;14.50;;;;;;;5.91;100.00;100945.36;106035;1259;99142;-78
2024/02/21 05:58:13;;;;;;;32.60;16.00;;;;;;;5.92;100.00;100947.92;106164;1262;99058;-80
2024/02/21 06:01:00;;;;;;;30.90;15.90;;;;;;;5.91;100.00;100947.66;106179;1258;99315;-80
2024/02/21 06:03:47;;;;;;;36.00;15.60;;;;;;;5.91;100.00;100948.35;106676;1262;98392;-81
2024/02/21 06:06:33;;;;;;;35.40;15.50;;;;;;;5.89;100.00;100951.73;106700;1262;103016;-81
2024/02/21 06:09:18;;;;;;;32.40;14.10;;;;;;;5.89;100.00;100948.42;106532;1260;99087;-81
2024/02/21 06:12:04;;;;;;;30.30;15.00;;;;;;;5.89;100.00;100944.30;106817;1262;99315;-80
2024/02/21 06:14:49;;;;;;;33.10;15.20;;;;;;;5.89;100.00;100944.98;106695;1257;98545;-81
2024/02/21 06:17:35;;;;;;;29.90;14.10;;;;;;;5.91;100.00;100945.39;106781;1257;97466;-80
2024/02/21 06:20:20;;;;;;;33.90;15.90;;;;;;;5.92;100.00;100946.15;106718;1263;103006;-81
2024/02/21 06:23:06;;;;;;;33.80;15.30;;;;;;;5.92;100.00;100945.80;106779;1262;100270;-79
2024/02/21 06:25:52;;;;;;;42.60;16.30;;;;;;;5.93;100.00;100950.11;106729;1262;99001;-80
2024/02/21 06:28:38;;;;;;;28.80;15.00;;;;;;;5.96;100.00;100949.69;106688;1257;98519;-80
2024/02/21 06:31:23;;;;;;;29.00;15.20;;;;;;;5.96;100.00;100946.77;106676;1262;98487;-80
2024/02/21 06:34:09;;;;;;;32.70;13.70;;;;;;;5.96;100.00;100945.77;106707;1258;102173;-81
2024/02/21 06:36:54;;;;;;;31.90;14.70;;;;;;;5.95;100.00;100944.20;106781;1257;99129;-82
2024/02/21 06:39:40;;;;;;;36.00;15.50;;;;;;;5.96;100.00;100940.02;106609;1262;97873;-80
2024/02/21 06:42:26;;;;;;;37.10;17.90;;;;;;;5.97;100.00;100938.87;106475;1260;97874;-80
2024/02/21 06:45:11;;;;;;;32.60;15.20;;;;;;;5.99;100.00;100941.33;106490;1262;97946;-80
2024/02/21 06:47:57;;;;;;;28.00;14.10;;;;;;;6.03;100.00;100938.53;106567;1261;102601;-80
2024/02/21 06:50:42;;;;;;;36.40;16.60;;;;;;;6.05;100.00;100939.35;106655;1259;99831;-80
2024/02/21 06:53:28;;;;;;;32.30;15.10;;;;;;;6.08;100.00;100938.55;106604;1258;98561;-80
2024/02/21 06:56:14;;;;;;;31.70;15.40;;;;;;;6.11;100.00;100941.58;106681;1262;97967;-80
2024/02/21 06:58:59;;;;;;;35.40;15.80;;;;;;;6.16;100.00;100935.39;106754;1260;97842;-81
2024/02/21 07:01:48;;;;;;;36.90;16.70;;;;;;;6.20;100.00;100924.86;106303;1259;102308;-79
2024/02/21 07:04:33;;;;;;;38.70;16.60;;;;;;;6.24;100.00;100921.50;105840;1275;99240;-79
2024/02/21 07:07:19;;;;;;;36.80;16.80;;;;;;;6.26;100.00;100926.80;105801;1263;98644;-78
2024/02/21 07:10:05;;;;;;;36.70;17.00;;;;;;;6.28;100.00;100927.50;105741;1260;99071;-77
2024/02/21 07:12:52;;;;;;;37.30;16.70;;;;;;;6.32;100.00;100924.67;105252;1257;98432;-80
2024/02/21 07:15:38;;;;;;;35.10;18.40;;;;;;;6.34;100.00;100924.65;105977;1257;101342;-80
2024/02/21 07:18:25;;;;;;;51.00;20.10;;;;;;;6.35;100.00;100924.49;106084;1263;99231;-80
2024/02/21 07:21:12;;;;;;;40.30;18.20;;;;;;;6.34;100.00;100924.81;106318;1262;97910;-80
2024/02/21 07:23:58;;;;;;;36.70;17.40;;;;;;;6.34;100.00;100918.77;106455;1263;98505;-80
2024/02/21 07:26:44;;;;;;;41.70;18.80;;;;;;;6.35;100.00;100921.67;106372;1259;98389;-80
2024/02/21 07:29:30;;;;;;;37.60;18.50;;;;;;;6.37;100.00;100917.41;106443;1259;101552;-80
2024/02/21 07:32:16;;;;;;;43.40;20.90;;;;;;;6.40;100.00;100912.88;106765;1262;100495;-79
2024/02/21 07:35:02;;;;;;;45.60;19.50;;;;;;;6.43;100.00;100908.51;106497;1262;97893;-79
2024/02/21 07:37:47;;;;;;;45.80;20.20;;;;;;;6.46;100.00;100905.39;105992;1263;97844;-80
2024/02/21 07:40:33;;;;;;;45.80;20.60;;;;;;;6.49;100.00;100903.75;105965;1257;98483;-81
2024/02/21 07:43:19;;;;;;;45.20;20.60;;;;;;;6.54;100.00;100900.02;105928;1261;101379;-79
2024/02/21 07:46:04;;;;;;;65.50;29.80;;;;;;;6.58;100.00;100894.48;105984;1257;99315;-79
2024/02/21 07:48:50;;;;;;;386.40;188.90;;;;;;;6.63;100.00;100893.84;105825;1263;97983;-79
2024/02/21 07:51:36;;;;;;;467.20;238.20;;;;;;;6.68;100.00;100895.76;106002;1257;97785;-80
2024/02/21 07:54:22;;;;;;;191.20;93.50;;;;;;;6.73;100.00;100893.84;106040;1258;99671;-80
2024/02/21 07:57:08;;;;;;;223.50;121.30;;;;;;;6.77;100.00;100888.23;106507;1257;101340;-80
2024/02/21 07:59:54;;;;;;;96.20;51.50;;;;;;;6.83;100.00;100884.14;106537;1257;99168;-79
2024/02/21 08:02:39;;;;;;;70.40;31.90;;;;;;;6.87;100.00;100889.02;106390;1264;98028;-79
2024/02/21 08:05:25;;;;;;;57.30;25.00;;;;;;;6.90;100.00;100887.88;106377;1257;97872;-80
2024/02/21 08:08:10;;;;;;;46.40;22.80;;;;;;;6.91;100.00;100881.69;105877;1257;98561;-79
2024/02/21 08:10:56;;;;;;;45.90;20.60;;;;;;;6.90;100.00;100877.14;106053;1257;101347;-78
2024/02/21 08:13:42;;;;;;;52.10;23.00;;;;;;;6.90;100.00;100875.38;105916;1258;99138;-79
2024/02/21 08:16:27;;;;;;;76.90;38.40;;;;;;;6.91;100.00;100874.05;105936;1262;99536;-78
2024/02/21 08:19:13;;;;;;;116.00;66.80;;;;;;;6.91;100.00;100874.02;105970;1263;97868;-78
2024/02/21 08:21:58;;;;;;;59.10;31.90;;;;;;;6.92;100.00;100872.16;105998;1263;98495;-78
2024/02/21 08:24:44;;;;;;;55.80;25.90;;;;;;;6.91;100.00;100865.56;106073;1263;102595;-80
2024/02/21 08:27:29;;;;;;;57.70;30.00;;;;;;;6.90;100.00;100868.69;105930;1261;99146;-80
2024/02/21 08:30:15;;;;;;;48.20;22.80;;;;;;;6.90;100.00;100864.89;105791;1258;98061;-78
2024/02/21 08:33:00;;;;;;;52.30;25.50;;;;;;;6.93;100.00;100861.62;105784;1263;99155;-78
2024/02/21 08:35:46;;;;;;;49.20;26.00;;;;;;;6.95;100.00;100861.34;105596;1268;97911;-79
2024/02/21 08:38:33;;;;;;;49.10;25.30;;;;;;;6.96;100.00;100860.80;105710;1263;101333;-77
2024/02/21 08:41:21;;;;;;;61.60;29.70;;;;;;;6.95;100.00;100855.38;105837;1257;99908;-87
2024/02/21 08:44:07;;;;;;;43.20;20.80;;;;;;;6.96;100.00;100851.70;105865;1257;98995;-84
2024/02/21 08:46:53;;;;;;;51.10;21.90;;;;;;;7.00;100.00;100850.25;106483;1263;98020;-82
2024/02/21 08:49:38;;;;;;;41.60;21.80;;;;;;;7.05;100.00;100840.48;105958;1267;98504;-83
2024/02/21 08:52:24;;;;;;;44.90;22.40;;;;;;;7.11;100.00;100835.83;105975;1259;102787;-83
2024/02/21 08:55:10;;;;;;;45.30;21.50;;;;;;;7.16;100.00;100830.77;106144;1257;100454;-85
2024/02/21 08:57:56;;;;;;;43.40;21.00;;;;;;;7.21;100.00;100826.41;105958;1258;97858;-80
2024/02/21 09:00:41;;;;;;;46.20;22.10;;;;;;;7.24;100.00;100826.60;106633;1263;97923;-82
2024/02/21 09:03:27;;;;;;;47.10;22.80;;;;;;;7.26;100.00;100828.31;106022;1257;97855;-83
2024/02/21 09:06:13;;;;;;;54.90;24.70;;;;;;;7.28;100.00;100827.01;106535;1258;101432;-81
2024/02/21 09:08:59;;;;;;;44.80;19.80;;;;;;;7.31;100.00;100829.59;106291;1258;100399;-80
2024/02/21 09:11:45;;;;;;;41.50;21.30;;;;;;;7.32;100.00;100831.66;106191;1263;97899;-80
2024/02/21 09:14:30;;;;;;;53.00;26.10;;;;;;;7.32;100.00;100829.70;106013;1264;98072;-82
2024/02/21 09:17:20;;;;;;;45.80;22.70;;;;;;;7.32;100.00;100832.45;106098;1257;99173;-82
2024/02/21 09:20:07;;;;;;;52.80;25.20;;;;;;;7.32;100.00;100832.83;106025;1257;102191;-85
2024/02/21 09:22:53;;;;;;;48.20;20.80;;;;;;;7.32;100.00;100832.87;105985;1257;100338;-83
2024/02/21 09:25:39;;;;;;;45.20;24.80;;;;;;;7.30;100.00;100834.48;106265;1257;98509;-85
2024/02/21 09:28:25;;;;;;;48.40;22.50;;;;;;;7.30;100.00;100835.33;106216;1261;97965;-85
2024/02/21 09:31:11;;;;;;;43.20;24.70;;;;;;;7.31;100.00;100836.48;106291;1264;98435;-82
2024/02/21 09:33:56;;;;;;;45.70;25.00;;;;;;;7.32;100.00;100832.84;106128;1257;101437;-83
2024/02/21 09:36:43;;;;;;;44.30;21.60;;;;;;;7.34;100.00;100828.38;106014;1264;99187;-83
2024/02/21 09:39:30;;;;;;;38.80;20.50;;;;;;;7.35;100.00;100824.68;105960;1261;98028;-85
2024/02/21 09:42:20;;;;;;;38.40;20.00;;;;;;;7.38;100.00;100825.77;106280;1257;98060;-85
2024/02/21 09:45:19;;;;;;;54.80;24.30;;;;;;;7.41;100.00;100823.94;106544;1261;98463;-80
2024/02/21 09:48:44;;;;;;;40.80;19.80;;;;;;;7.43;100.00;100820.67;106055;1263;101463;-80
2024/02/21 09:51:34;;;;;;;40.70;20.20;;;;;;;7.48;100.00;100816.40;106522;1259;100717;-79
2024/02/21 09:54:21;;;;;;;49.80;22.60;;;;;;;7.52;100.00;100811.55;105682;1257;97994;-80
2024/02/21 09:57:07;;;;;;;44.20;22.60;;;;;;;7.53;100.00;100806.30;105758;1258;97956;-80
2024/02/21 09:59:55;;;;;;;57.30;30.40;;;;;;;7.53;100.00;100805.35;105644;1258;97752;-79
2024/02/21 10:02:41;;;;;;;53.80;24.10;;;;;;;7.54;100.00;100804.73;105667;1257;101509;-77
2024/02/21 10:05:27;;;;;;;50.10;25.90;;;;;;;7.55;100.00;100802.85;105886;1257;99163;-79
2024/02/21 10:08:15;;;;;;;87.00;45.80;;;;;;;7.55;100.00;100801.20;106033;1263;97967;-78
2024/02/21 10:11:02;;;;;;;43.40;26.00;;;;;;;7.57;100.00;100798.33;105846;1260;97868;-78
2024/02/21 10:13:49;;;;;;;49.60;25.50;;;;;;;7.61;100.00;100795.95;105766;1263;98075;-79
2024/02/21 10:16:34;;;;;;;40.80;24.70;;;;;;;7.66;100.00;100794.69;105926;1263;101361;-78
2024/02/21 10:19:20;;;;;;;42.70;22.00;;;;;;;7.71;100.00;100789.43;105422;1260;99129;-78
2024/02/21 10:22:09;;;;;;;46.80;22.10;;;;;;;7.75;100.00;100787.35;105515;1257;97965;-79
2024/02/21 10:24:55;;;;;;;38.70;21.20;;;;;;;7.79;100.00;100786.75;105782;1263;97979;-79
2024/02/21 10:27:41;;;;;;;41.20;21.70;;;;;;;7.83;100.00;100790.06;105810;1257;99128;-79
2024/02/21 10:30:26;;;;;;;45.80;22.10;;;;;;;7.84;100.00;100789.39;105967;1257;102415;-78
2024/02/21 10:33:15;;;;;;;44.00;21.50;;;;;;;7.82;100.00;100782.69;105832;1262;99241;-78
2024/02/21 10:36:09;;;;;;;41.00;21.10;;;;;;;7.81;100.00;100778.55;105696;1257;99702;-79
2024/02/21 10:38:55;;;;;;;47.50;23.10;;;;;;;7.82;100.00;100774.73;105858;1263;97983;-80
2024/02/21 10:41:43;;;;;;;42.30;22.90;;;;;;;7.87;100.00;100768.85;106121;1259;97880;-82
2024/02/21 10:44:31;;;;;;;43.40;21.20;;;;;;;7.89;100.00;100765.90;105895;1257;101378;-82
2024/02/21 10:47:21;;;;;;;39.10;20.30;;;;;;;7.89;100.00;100763.23;106064;1257;99158;-82
2024/02/21 10:50:10;;;;;;;36.50;20.90;;;;;;;7.91;100.00;100759.33;106397;1257;98002;-83
2024/02/21 10:53:09;;;;;;;39.70;19.80;;;;;;;7.90;100.00;100755.52;106364;1257;97925;-84
2024/02/21 10:56:31;;;;;;;40.20;19.80;;;;;;;7.91;100.00;100752.86;108184;1257;95797;-83
2024/02/21 10:59:18;;;;;;;39.00;18.90;;;;;;;7.94;100.00;100750.13;106163;1257;101386;-83
2024/02/21 11:02:04;;;;;;;42.10;19.20;;;;;;;7.94;100.00;100749.17;105957;1260;99252;-85
2024/02/21 11:04:53;;;;;;;37.90;19.30;;;;;;;7.93;100.00;100749.42;106453;1257;100102;-85
2024/02/21 11:07:40;;;;;;;34.00;19.30;;;;;;;7.92;100.00;100742.33;106069;1258;98017;-85
2024/02/21 11:10:26;;;;;;;42.70;20.30;;;;;;;7.91;100.00;100740.31;105910;1263;98395;-87
2024/02/21 11:13:14;;;;;;;43.40;18.70;;;;;;;7.90;100.00;100737.36;106212;1262;103381;-84
2024/02/21 11:16:10;;;;;;;42.50;19.70;;;;;;;7.89;100.00;100731.66;105905;1257;100473;-84
2024/02/21 11:19:06;;;;;;;37.90;19.40;;;;;;;7.90;100.00;100732.06;106019;1257;97837;-84
2024/02/21 11:21:55;;;;;;;41.20;21.20;;;;;;;7.90;100.00;100730.83;106036;1257;98043;-84
2024/02/21 11:24:42;;;;;;;38.80;21.10;;;;;;;7.89;100.00;100726.95;106088;1262;99326;-83
2024/02/21 11:27:34;;;;;;;44.00;21.30;;;;;;;7.89;100.00;100722.85;106117;1257;101707;-80
2024/02/21 11:30:26;;;;;;;44.40;21.40;;;;;;;7.90;100.00;100721.49;106454;1257;100897;-83
2024/02/21 11:33:12;;;;;;;37.80;20.80;;;;;;;7.92;100.00;100719.59;105817;1262;99151;-83
2024/02/21 11:35:57;;;;;;;45.00;21.70;;;;;;;7.93;100.00;100715.75;106253;1257;97942;-82
2024/02/21 11:38:43;;;;;;;44.10;21.20;;;;;;;7.92;100.00;100711.77;106160;1257;97905;-83
2024/02/21 11:41:30;;;;;;;40.00;22.00;;;;;;;7.92;100.00;100710.33;106067;1263;101468;-84
2024/02/21 11:44:15;;;;;;;42.70;20.80;;;;;;;7.92;100.00;100712.77;106347;1257;100475;-79
2024/02/21 11:47:03;;;;;;;42.60;23.60;;;;;;;7.92;100.00;100709.92;106149;1260;98708;-85
2024/02/21 11:49:54;;;;;;;42.10;21.70;;;;;;;7.94;100.00;100711.02;106014;1264;97822;-84
2024/02/21 11:52:40;;;;;;;38.00;20.80;;;;;;;7.93;100.00;100707.66;106018;1264;97817;-83
2024/02/21 11:55:25;;;;;;;43.50;20.90;;;;;;;7.93;100.00;100706.48;106115;1257;101411;-83
2024/02/21 11:58:10;;;;;;;34.10;19.70;;;;;;;7.93;100.00;100705.23;106298;1256;99133;-79
2024/02/21 12:00:56;;;;;;;37.70;19.40;;;;;;;7.92;100.00;100699.30;106106;1257;97954;-82
2024/02/21 12:03:49;;;;;;;33.80;16.40;;;;;;;7.91;100.00;100699.26;106460;1257;97953;-87
2024/02/21 12:06:35;;;;;;;36.90;20.70;;;;;;;7.90;100.00;100700.76;106200;1263;97896;-78
2024/02/21 12:09:22;;;;;;;37.10;21.90;;;;;;;7.90;100.00;100697.89;105703;1257;101532;-78
2024/02/21 12:12:08;;;;;;;41.00;20.20;;;;;;;7.92;100.00;100686.71;105923;1257;100479;-84
2024/02/21 12:14:58;;;;;;;39.90;20.20;;;;;;;7.93;100.00;100681.75;106545;1260;98874;-85
2024/02/21 12:17:45;;;;;;;32.20;17.80;;;;;;;7.94;100.00;100679.66;106541;1257;98194;-87
2024/02/21 12:20:32;;;;;;;42.00;18.70;;;;;;;7.93;100.00;100677.61;105357;1265;97937;-77
2024/02/21 12:23:19;;;;;;;42.00;19.20;;;;;;;7.93;100.00;100675.75;105170;1257;101418;-78
2024/02/21 12:26:05;;;;;;;39.30;22.70;;;;;;;7.94;100.00;100672.18;105872;1257;99087;-80
2024/02/21 12:28:50;;;;;;;37.90;19.70;;;;;;;7.95;100.00;100670.52;105570;1258;98127;-83